Time;durP1;ratioP1;P1;durP2;ratioP2;P2;SDS_P1;SDS_P2;PMS_P1;PMS_P2;Temp;Humidity;BMP_temperature;BMP_pressure;BME280_temperature;BME280_humidity;BME280_pressure;Samples;Min_cycle;Max_cycle;Signal;HPM_P1;HPM_P2
2023/12/05 00:01:20;;;;;;;3.85;2.90;;;8.80;99.90;;;;;;4928706;28;88127;-76
2023/12/05 00:03:45;;;;;;;3.15;2.45;;;8.80;99.90;;;;;;4927907;28;87735;-76
2023/12/05 00:06:12;;;;;;;3.47;2.72;;;8.90;99.90;;;;;;4924899;28;90965;-76
2023/12/05 00:08:38;;;;;;;5.38;2.78;;;8.80;99.90;;;;;;4929619;28;87894;-76
2023/12/05 00:11:07;;;;;;;4.57;2.47;;;8.80;99.90;;;;;;4928533;28;87726;-76
2023/12/05 00:13:34;;;;;;;3.40;2.72;;;8.80;99.90;;;;;;4925310;28;88641;-76
2023/12/05 00:16:00;;;;;;;3.75;2.63;;;8.80;99.90;;;;;;4926599;28;89619;-76
2023/12/05 00:18:26;;;;;;;5.15;2.85;;;8.70;99.90;;;;;;4927454;28;87848;-76
2023/12/05 00:20:51;;;;;;;4.78;2.67;;;8.70;99.90;;;;;;4926992;28;90575;-76
2023/12/05 00:23:17;;;;;;;4.13;2.40;;;8.70;99.90;;;;;;4923777;28;91500;-76
2023/12/05 00:25:43;;;;;;;2.97;2.30;;;8.70;99.90;;;;;;4923022;28;91056;-76
2023/12/05 00:28:09;;;;;;;4.78;2.38;;;8.70;99.90;;;;;;4925094;28;87630;-77
2023/12/05 00:30:35;;;;;;;4.57;2.30;;;8.70;99.90;;;;;;4927193;28;88105;-77
2023/12/05 00:33:00;;;;;;;2.78;2.25;;;8.70;99.90;;;;;;4925086;28;90566;-76
2023/12/05 00:35:26;;;;;;;3.70;2.40;;;8.80;99.90;;;;;;4927815;28;88043;-76
2023/12/05 00:37:52;;;;;;;3.58;2.25;;;8.80;99.90;;;;;;4927515;28;88493;-76
2023/12/05 00:40:17;;;;;;;5.50;2.90;;;8.90;99.90;;;;;;4926700;28;87517;-76
2023/12/05 00:42:43;;;;;;;3.47;2.45;;;8.90;99.90;;;;;;4925669;28;88375;-77
2023/12/05 00:45:12;;;;;;;2.88;2.05;;;8.80;99.90;;;;;;4926260;28;87656;-76
2023/12/05 00:47:39;;;;;;;4.15;2.03;;;8.70;99.90;;;;;;4925473;28;88714;-76
2023/12/05 00:50:05;;;;;;;3.13;1.80;;;8.60;99.90;;;;;;4924971;28;87486;-76
2023/12/05 00:52:31;;;;;;;2.15;1.70;;;8.50;99.90;;;;;;4926586;28;88192;-76
2023/12/05 00:54:56;;;;;;;4.47;2.08;;;8.50;99.90;;;;;;4925744;28;88965;-76
2023/12/05 00:57:22;;;;;;;2.63;2.00;;;8.40;99.90;;;;;;4926943;28;87797;-76
2023/12/05 00:59:47;;;;;;;2.95;2.00;;;8.50;99.90;;;;;;4925919;28;89157;-76
2023/12/05 01:02:13;;;;;;;2.78;2.00;;;8.40;99.90;;;;;;4924909;28;92357;-76
2023/12/05 01:04:39;;;;;;;3.53;2.20;;;8.30;99.90;;;;;;4928123;28;89423;-76
2023/12/05 01:07:05;;;;;;;3.00;2.38;;;8.30;99.90;;;;;;4924620;28;87814;-76
2023/12/05 01:09:31;;;;;;;2.58;1.80;;;8.30;99.90;;;;;;4925496;28;87955;-76
2023/12/05 01:11:56;;;;;;;2.65;1.90;;;8.40;99.90;;;;;;4909522;28;91694;-76
2023/12/05 01:14:22;;;;;;;2.15;1.48;;;8.40;99.90;;;;;;4925305;28;88919;-76
2023/12/05 01:16:47;;;;;;;2.22;1.77;;;8.40;99.90;;;;;;4927467;28;87909;-76
2023/12/05 01:19:13;;;;;;;2.38;1.70;;;8.40;99.90;;;;;;4924630;28;89090;-76
2023/12/05 01:21:39;;;;;;;3.75;1.80;;;8.40;99.90;;;;;;4923443;28;90086;-76
2023/12/05 01:24:06;;;;;;;2.50;1.75;;;8.40;99.90;;;;;;4927511;28;88230;-76
2023/12/05 01:26:31;;;;;;;2.35;1.92;;;8.40;99.90;;;;;;4925407;28;88412;-76
2023/12/05 01:28:57;;;;;;;4.00;1.75;;;8.40;99.90;;;;;;4926276;28;87670;-76
2023/12/05 01:31:23;;;;;;;3.35;1.80;;;8.40;99.90;;;;;;4925102;28;88554;-76
2023/12/05 01:33:48;;;;;;;2.13;1.70;;;8.50;99.90;;;;;;4923452;28;87535;-76
2023/12/05 01:36:14;;;;;;;3.40;1.77;;;8.50;99.90;;;;;;4922210;28;87693;-76
2023/12/05 01:38:40;;;;;;;2.70;1.63;;;8.50;99.90;;;;;;4930429;28;88306;-76
2023/12/05 01:41:07;;;;;;;2.80;1.75;;;8.50;99.90;;;;;;4927558;28;89372;-76
2023/12/05 01:43:33;;;;;;;2.78;1.88;;;8.60;99.90;;;;;;4927391;28;91624;-76
2023/12/05 01:46:00;;;;;;;2.20;1.52;;;8.60;99.90;;;;;;4930295;28;87544;-76
2023/12/05 01:48:26;;;;;;;2.40;1.65;;;8.60;99.90;;;;;;4928495;28;90401;-76
2023/12/05 01:50:54;;;;;;;2.10;1.40;;;8.60;99.90;;;;;;4920688;28;92331;-76
2023/12/05 01:53:22;;;;;;;2.60;1.58;;;8.60;99.90;;;;;;4928113;28;90059;-76
2023/12/05 01:55:49;;;;;;;2.47;1.55;;;8.70;99.90;;;;;;4929350;28;87437;-76
2023/12/05 01:58:15;;;;;;;2.20;1.52;;;8.70;99.90;;;;;;4929527;28;87725;-76
2023/12/05 02:00:42;;;;;;;2.30;1.40;;;8.70;99.90;;;;;;4928564;28;91486;-77
2023/12/05 02:03:09;;;;;;;2.83;1.60;;;8.70;99.90;;;;;;4927127;28;90833;-76
2023/12/05 02:05:36;;;;;;;3.50;1.70;;;8.80;99.90;;;;;;4929554;28;87752;-76
2023/12/05 02:08:01;;;;;;;3.10;1.70;;;8.80;99.90;;;;;;4929481;28;88065;-76
2023/12/05 02:10:27;;;;;;;4.38;1.88;;;8.80;99.90;;;;;;4926222;28;91515;-76
2023/12/05 02:12:53;;;;;;;3.63;1.55;;;8.90;99.90;;;;;;4928169;28;91471;-76
2023/12/05 02:15:19;;;;;;;3.65;1.42;;;8.90;99.90;;;;;;4929449;28;88486;-76
2023/12/05 02:17:53;;;;;;;3.05;1.63;;;8.90;99.90;;;;;;4913439;28;89094;-76
2023/12/05 02:20:28;;;;;;;1.70;1.52;;;8.90;99.90;;;;;;4919397;28;89978;-77
2023/12/05 02:23:26;;;;;;;1.85;1.35;;;8.90;99.90;;;;;;4927970;28;87558;-76
2023/12/05 02:26:24;;;;;;;2.70;1.58;;;9.00;99.90;;;;;;4928057;28;87350;-76
2023/12/05 02:28:50;;;;;;;2.10;1.70;;;9.00;99.90;;;;;;4919140;28;90679;-76
2023/12/05 02:31:17;;;;;;;2.35;1.60;;;9.00;99.90;;;;;;4929016;28;89147;-76
2023/12/05 02:33:43;;;;;;;1.88;1.48;;;9.00;99.90;;;;;;4928528;28;92121;-76
2023/12/05 02:36:37;;;;;;;4.43;1.67;;;9.00;99.90;;;;;;4929602;28;87710;-76
2023/12/05 02:39:15;;;;;;;2.95;1.60;;;9.00;99.90;;;;;;4928625;28;87358;-76
2023/12/05 02:41:45;;;;;;;3.92;1.80;;;9.00;99.90;;;;;;4919313;28;97179;-77
2023/12/05 02:44:16;;;;;;;2.60;1.77;;;9.00;99.90;;;;;;4928369;28;89425;-76
2023/12/05 02:46:43;;;;;;;2.00;1.60;;;9.10;99.90;;;;;;4928916;28;87847;-76
2023/12/05 02:49:10;;;;;;;2.65;1.80;;;9.10;99.90;;;;;;4927081;28;87861;-76
2023/12/05 02:51:36;;;;;;;2.15;1.73;;;9.10;99.90;;;;;;4926837;28;89719;-76
2023/12/05 02:54:05;;;;;;;2.33;1.67;;;9.10;99.90;;;;;;4927670;28;88715;-76
2023/12/05 02:56:33;;;;;;;2.35;1.65;;;9.00;99.90;;;;;;4929357;28;87530;-76
2023/12/05 02:58:59;;;;;;;3.92;1.70;;;9.00;99.90;;;;;;4927513;28;87460;-76
2023/12/05 03:01:24;;;;;;;2.83;1.60;;;9.00;99.90;;;;;;4928931;28;88491;-76
2023/12/05 03:03:50;;;;;;;3.42;1.58;;;9.10;99.90;;;;;;4926278;28;90174;-76
2023/12/05 03:06:16;;;;;;;2.97;1.40;;;9.00;99.90;;;;;;4926554;28;88452;-76
2023/12/05 03:08:41;;;;;;;3.38;1.70;;;9.00;99.90;;;;;;4930290;28;87591;-76
2023/12/05 03:11:07;;;;;;;2.08;1.55;;;9.00;99.90;;;;;;4928843;28;88778;-76
2023/12/05 03:13:33;;;;;;;4.28;2.08;;;9.00;99.90;;;;;;4926665;28;91375;-76
2023/12/05 03:15:58;;;;;;;2.58;1.67;;;9.00;99.90;;;;;;4928047;28;87708;-76
2023/12/05 03:18:24;;;;;;;3.28;1.83;;;9.00;99.90;;;;;;4926496;28;87321;-76
2023/12/05 03:20:50;;;;;;;2.75;1.90;;;9.00;99.90;;;;;;4928830;28;88316;-76
2023/12/05 03:23:19;;;;;;;2.95;1.70;;;9.00;99.90;;;;;;4927953;28;91058;-76
2023/12/05 03:25:44;;;;;;;2.42;1.98;;;9.00;99.90;;;;;;4925529;28;87750;-76
2023/12/05 03:28:10;;;;;;;3.95;1.70;;;9.00;99.90;;;;;;4927852;28;87526;-76
2023/12/05 03:30:35;;;;;;;2.17;1.75;;;9.00;99.90;;;;;;4927343;28;89538;-76
2023/12/05 03:33:01;;;;;;;2.63;1.50;;;9.10;99.90;;;;;;4927241;28;88353;-76
2023/12/05 03:35:27;;;;;;;1.42;1.08;;;9.10;99.90;;;;;;4926508;28;87563;-76
2023/12/05 03:37:52;;;;;;;2.75;1.45;;;9.00;99.90;;;;;;4926578;28;90451;-76
2023/12/05 03:40:18;;;;;;;0.93;0.70;;;9.00;99.90;;;;;;4918183;28;90624;-76
2023/12/05 03:42:44;;;;;;;1.60;0.77;;;8.80;99.90;;;;;;4924998;28;90078;-76
2023/12/05 03:45:10;;;;;;;2.80;0.80;;;8.80;99.90;;;;;;4927210;28;87744;-76
2023/12/05 03:47:35;;;;;;;0.85;0.52;;;8.70;99.90;;;;;;4929832;28;87931;-76
2023/12/05 03:50:01;;;;;;;1.15;0.50;;;8.70;99.90;;;;;;4925702;28;88670;-76
2023/12/05 03:52:27;;;;;;;0.63;0.50;;;8.80;99.90;;;;;;4925614;28;88767;-76
2023/12/05 03:54:53;;;;;;;1.27;0.82;;;8.70;99.90;;;;;;4928007;28;88569;-76
2023/12/05 03:57:19;;;;;;;0.43;0.43;;;8.70;99.90;;;;;;4926708;28;90312;-75
2023/12/05 03:59:46;;;;;;;1.25;0.70;;;8.70;99.90;;;;;;4927754;28;88506;-76
2023/12/05 04:02:12;;;;;;;1.35;0.80;;;8.80;99.90;;;;;;4926203;28;88362;-76
2023/12/05 04:04:37;;;;;;;1.90;1.00;;;8.80;99.90;;;;;;4928026;28;87887;-76
2023/12/05 04:07:04;;;;;;;1.35;0.93;;;8.90;99.90;;;;;;4926307;28;87849;-76
2023/12/05 04:09:30;;;;;;;1.27;0.75;;;8.90;99.90;;;;;;4927162;28;91819;-76
2023/12/05 04:11:56;;;;;;;1.17;0.90;;;8.90;99.90;;;;;;4928640;28;87473;-76
2023/12/05 04:14:21;;;;;;;1.33;0.80;;;9.00;99.90;;;;;;4928955;28;87404;-76
2023/12/05 04:16:47;;;;;;;2.08;0.77;;;9.10;99.90;;;;;;4929152;28;87607;-77
2023/12/05 04:19:12;;;;;;;1.67;0.70;;;9.10;99.90;;;;;;4925574;28;92298;-76
2023/12/05 04:21:38;;;;;;;1.40;0.70;;;9.20;99.90;;;;;;4926115;28;89016;-76
2023/12/05 04:24:06;;;;;;;1.92;0.80;;;9.20;99.90;;;;;;4926783;28;87516;-76
2023/12/05 04:26:32;;;;;;;1.30;0.70;;;9.30;99.90;;;;;;4928972;28;91590;-76
2023/12/05 04:28:57;;;;;;;2.78;0.88;;;9.30;99.90;;;;;;4926257;28;91261;-76
2023/12/05 04:31:27;;;;;;;1.02;0.70;;;9.30;99.90;;;;;;4924981;28;90117;-76
2023/12/05 04:33:53;;;;;;;0.57;0.57;;;9.40;99.90;;;;;;4925753;28;87599;-77
2023/12/05 04:36:18;;;;;;;0.85;0.60;;;9.40;99.90;;;;;;4926241;28;87396;-76
2023/12/05 04:38:44;;;;;;;0.80;0.60;;;9.40;99.90;;;;;;4927732;28;87818;-76
2023/12/05 04:41:10;;;;;;;1.13;0.70;;;9.30;99.90;;;;;;4927373;28;88811;-76
2023/12/05 04:43:36;;;;;;;0.98;0.75;;;9.10;99.90;;;;;;4926977;28;88270;-76
2023/12/05 04:46:02;;;;;;;0.82;0.60;;;9.00;99.90;;;;;;4920142;28;87811;-76
2023/12/05 04:48:27;;;;;;;3.78;0.68;;;9.00;99.90;;;;;;4922030;28;88606;-76
2023/12/05 04:50:53;;;;;;;0.50;0.50;;;9.00;99.90;;;;;;4924256;28;88961;-76
2023/12/05 04:53:19;;;;;;;0.60;0.60;;;8.90;99.90;;;;;;4928887;28;87638;-76
2023/12/05 04:55:44;;;;;;;0.65;0.47;;;8.80;99.90;;;;;;4927265;28;87573;-76
2023/12/05 04:58:10;;;;;;;0.75;0.50;;;8.70;99.90;;;;;;4927073;28;87715;-76
2023/12/05 05:00:36;;;;;;;0.57;0.30;;;8.70;99.90;;;;;;4929030;28;88578;-76
2023/12/05 05:03:02;;;;;;;1.85;0.50;;;8.60;99.90;;;;;;4927448;28;87487;-76
2023/12/05 05:05:28;;;;;;;1.48;0.22;;;8.60;99.90;;;;;;4926500;28;87534;-76
2023/12/05 05:07:53;;;;;;;0.63;0.30;;;8.50;99.90;;;;;;4926585;28;89990;-76
2023/12/05 05:10:19;;;;;;;0.20;0.20;;;8.50;99.90;;;;;;4927715;28;89416;-77
2023/12/05 05:12:45;;;;;;;1.35;0.20;;;8.40;99.90;;;;;;4931562;28;87771;-76
2023/12/05 05:15:11;;;;;;;0.20;0.20;;;8.50;99.90;;;;;;4928514;28;90864;-76
2023/12/05 05:17:36;;;;;;;1.13;0.20;;;8.40;99.90;;;;;;4929330;28;87747;-76
2023/12/05 05:20:03;;;;;;;0.25;0.20;;;8.50;99.90;;;;;;4932974;28;88203;-76
2023/12/05 05:22:28;;;;;;;0.28;0.28;;;8.50;99.90;;;;;;4928392;28;87844;-76
2023/12/05 05:24:54;;;;;;;0.45;0.20;;;8.40;99.90;;;;;;4929431;28;89949;-77
2023/12/05 05:27:20;;;;;;;0.90;0.30;;;8.40;99.90;;;;;;4932022;28;91286;-77
2023/12/05 05:29:45;;;;;;;1.08;0.40;;;8.40;99.90;;;;;;4930500;28;88809;-76
2023/12/05 05:32:11;;;;;;;0.57;0.30;;;8.40;99.90;;;;;;4928781;28;88799;-76
2023/12/05 05:34:37;;;;;;;0.57;0.30;;;8.40;99.90;;;;;;4930401;28;87780;-76
2023/12/05 05:37:03;;;;;;;2.97;0.40;;;8.40;99.90;;;;;;4931033;28;89334;-77
2023/12/05 05:39:28;;;;;;;3.28;0.43;;;8.40;99.90;;;;;;4928557;28;90041;-76
2023/12/05 05:41:54;;;;;;;0.22;0.20;;;8.30;99.90;;;;;;4929957;28;87659;-75
2023/12/05 05:44:20;;;;;;;0.40;0.30;;;8.40;99.90;;;;;;4926218;28;87838;-76
2023/12/05 05:46:45;;;;;;;0.68;0.20;;;8.40;99.90;;;;;;4929331;28;89072;-76
2023/12/05 05:49:11;;;;;;;0.77;0.30;;;8.40;99.90;;;;;;4929383;28;88824;-76
2023/12/05 05:51:37;;;;;;;2.92;0.22;;;8.40;99.90;;;;;;4928849;28;87598;-76
2023/12/05 05:54:03;;;;;;;0.73;0.20;;;8.40;99.90;;;;;;4929305;28;88554;-75
2023/12/05 05:56:29;;;;;;;0.20;0.20;;;8.40;99.90;;;;;;4928985;28;88692;-75
2023/12/05 05:58:54;;;;;;;0.45;0.20;;;8.30;99.90;;;;;;4926881;28;94694;-75
2023/12/05 06:01:20;;;;;;;0.40;0.28;;;8.30;99.90;;;;;;4928684;28;87844;-76
2023/12/05 06:03:46;;;;;;;0.73;0.20;;;8.30;99.90;;;;;;4927174;28;91345;-76
2023/12/05 06:06:11;;;;;;;0.20;0.20;;;8.40;99.90;;;;;;4925326;28;91664;-78
2023/12/05 06:08:37;;;;;;;0.20;0.20;;;8.40;99.90;;;;;;4930659;28;88547;-76
2023/12/05 06:11:03;;;;;;;2.55;0.30;;;8.40;99.90;;;;;;4927845;28;87786;-76
2023/12/05 06:13:29;;;;;;;0.90;0.32;;;8.50;99.90;;;;;;4929588;28;87928;-76
2023/12/05 06:15:54;;;;;;;0.73;0.20;;;8.50;99.90;;;;;;4912899;28;90263;-76
2023/12/05 06:18:20;;;;;;;0.22;0.20;;;8.50;99.90;;;;;;4929318;28;88403;-76
2023/12/05 06:20:46;;;;;;;0.28;0.20;;;8.50;99.90;;;;;;4927573;28;88431;-76
2023/12/05 06:23:12;;;;;;;0.60;0.30;;;8.50;99.90;;;;;;4926120;28;89162;-76
2023/12/05 06:25:39;;;;;;;0.30;0.30;;;8.60;99.90;;;;;;4929713;28;88592;-76
2023/12/05 06:28:05;;;;;;;0.73;0.30;;;8.70;99.90;;;;;;4923898;28;87794;-76
2023/12/05 06:30:30;;;;;;;1.67;0.20;;;8.70;99.90;;;;;;4914977;28;87658;-76
2023/12/05 06:32:56;;;;;;;0.30;0.25;;;8.70;99.90;;;;;;4924667;28;87715;-76
2023/12/05 06:35:22;;;;;;;0.30;0.30;;;8.80;99.90;;;;;;4920735;28;88678;-76
2023/12/05 06:37:48;;;;;;;1.98;0.50;;;8.80;99.90;;;;;;4921949;28;88579;-76
2023/12/05 06:40:13;;;;;;;0.95;0.50;;;8.70;99.90;;;;;;4922336;28;87958;-76
2023/12/05 06:42:40;;;;;;;3.17;1.20;;;8.70;99.90;;;;;;4921446;28;88876;-76
2023/12/05 06:45:06;;;;;;;0.88;0.30;;;8.80;99.90;;;;;;4921393;28;90887;-76
2023/12/05 06:47:33;;;;;;;0.30;0.30;;;8.70;99.90;;;;;;4924524;28;89149;-76
2023/12/05 06:50:05;;;;;;;0.60;0.30;;;8.60;99.90;;;;;;4925392;28;87879;-77
2023/12/05 06:52:30;;;;;;;0.55;0.22;;;8.40;99.90;;;;;;4923472;28;87941;-76
2023/12/05 06:54:56;;;;;;;0.60;0.40;;;8.30;99.90;;;;;;4921805;28;88781;-76
2023/12/05 06:57:22;;;;;;;0.75;0.43;;;8.10;99.90;;;;;;4922753;28;87906;-75
2023/12/05 06:59:47;;;;;;;0.52;0.30;;;8.00;99.90;;;;;;4924094;28;87837;-76
2023/12/05 07:02:13;;;;;;;0.73;0.40;;;7.80;99.90;;;;;;4923646;28;87557;-76
2023/12/05 07:04:39;;;;;;;0.70;0.40;;;7.80;99.90;;;;;;4923490;28;88623;-76
2023/12/05 07:07:04;;;;;;;0.30;0.30;;;7.80;99.90;;;;;;4913776;28;91154;-76
2023/12/05 07:09:33;;;;;;;0.93;0.35;;;7.80;99.90;;;;;;4925084;28;88393;-76
2023/12/05 07:11:58;;;;;;;0.63;0.30;;;7.70;99.90;;;;;;4930222;28;87858;-76
2023/12/05 07:14:24;;;;;;;0.85;0.40;;;7.70;99.90;;;;;;4927026;28;88650;-76
2023/12/05 07:16:50;;;;;;;1.00;0.50;;;7.60;99.90;;;;;;4926220;28;88337;-76
2023/12/05 07:19:15;;;;;;;1.73;0.50;;;7.60;99.90;;;;;;4927005;28;87495;-76
2023/12/05 07:21:41;;;;;;;0.85;0.57;;;7.60;99.90;;;;;;4928964;28;87357;-76
2023/12/05 07:24:07;;;;;;;1.38;0.35;;;7.60;99.90;;;;;;4926149;28;89157;-76
2023/12/05 07:26:32;;;;;;;0.40;0.40;;;7.60;99.90;;;;;;4928336;28;88465;-78
2023/12/05 07:28:58;;;;;;;0.52;0.32;;;7.60;99.90;;;;;;4927485;28;87593;-77
2023/12/05 07:31:24;;;;;;;3.83;0.40;;;7.60;99.90;;;;;;4926736;28;87463;-76
2023/12/05 07:33:49;;;;;;;2.65;0.50;;;7.50;99.90;;;;;;4927913;28;96828;-78
2023/12/05 07:36:15;;;;;;;2.05;0.40;;;7.60;99.90;;;;;;4927586;28;91496;-77
2023/12/05 07:38:41;;;;;;;1.50;0.40;;;7.50;99.90;;;;;;4929320;28;87435;-78
2023/12/05 07:41:19;;;;;;;0.90;0.32;;;7.50;99.90;;;;;;4928118;28;87428;-77
2023/12/05 07:43:45;;;;;;;1.45;0.63;;;7.50;99.90;;;;;;4928068;28;88690;-78
2023/12/05 07:46:11;;;;;;;0.60;0.45;;;7.50;99.90;;;;;;4918305;28;89586;-76
2023/12/05 07:48:37;;;;;;;0.70;0.30;;;7.50;99.90;;;;;;4909316;28;87833;-76
2023/12/05 07:51:02;;;;;;;1.55;0.52;;;7.50;99.90;;;;;;4912951;28;87460;-76
2023/12/05 07:53:28;;;;;;;1.75;0.40;;;7.40;99.90;;;;;;4911435;28;90407;-75
2023/12/05 07:55:54;;;;;;;2.40;0.50;;;7.40;99.90;;;;;;4911320;28;88274;-75
2023/12/05 07:58:19;;;;;;;0.70;0.47;;;7.40;99.90;;;;;;4913998;28;88540;-76
2023/12/05 08:00:46;;;;;;;1.17;0.60;;;7.40;99.90;;;;;;4910898;28;88912;-75
2023/12/05 08:03:13;;;;;;;1.15;0.47;;;7.40;99.90;;;;;;4910352;28;91814;-76
2023/12/05 08:05:39;;;;;;;1.58;0.50;;;7.40;99.90;;;;;;4923983;28;90573;-76
2023/12/05 08:08:05;;;;;;;1.95;0.60;;;7.40;99.90;;;;;;4928115;28;87501;-76
2023/12/05 08:10:30;;;;;;;1.13;0.60;;;7.40;99.90;;;;;;4928760;28;87674;-76
2023/12/05 08:12:56;;;;;;;2.95;0.90;;;7.30;99.90;;;;;;4921741;28;90006;-76
2023/12/05 08:15:22;;;;;;;0.80;0.68;;;7.40;99.90;;;;;;4922652;28;88364;-77
2023/12/05 08:17:47;;;;;;;0.98;0.52;;;7.40;99.90;;;;;;4924939;28;87514;-77
2023/12/05 08:20:13;;;;;;;1.13;0.60;;;7.40;99.90;;;;;;4922243;28;91151;-76
2023/12/05 08:22:40;;;;;;;1.50;0.50;;;7.30;99.90;;;;;;4925724;28;88520;-77
2023/12/05 08:25:07;;;;;;;1.42;0.57;;;7.30;99.90;;;;;;4925942;28;90900;-77
2023/12/05 08:27:33;;;;;;;1.42;0.60;;;7.30;99.90;;;;;;4926882;28;87578;-77
2023/12/05 08:29:59;;;;;;;3.70;0.77;;;7.30;99.90;;;;;;4926748;28;89338;-77
2023/12/05 08:32:25;;;;;;;6.20;0.73;;;7.30;99.90;;;;;;4925276;28;88376;-76
2023/12/05 08:34:50;;;;;;;2.90;0.85;;;7.30;99.90;;;;;;4927477;28;87929;-77
2023/12/05 08:37:16;;;;;;;11.57;1.00;;;7.30;99.90;;;;;;4926703;28;87724;-77
2023/12/05 08:39:42;;;;;;;0.95;0.65;;;7.30;99.90;;;;;;4930001;28;87735;-76
2023/12/05 08:42:08;;;;;;;0.88;0.52;;;7.20;99.90;;;;;;4925960;28;88734;-76
2023/12/05 08:44:33;;;;;;;3.13;0.73;;;7.20;99.90;;;;;;4927254;28;87404;-75
2023/12/05 08:46:59;;;;;;;1.50;0.80;;;7.30;99.90;;;;;;4925644;28;89179;-76
2023/12/05 08:49:25;;;;;;;1.35;0.82;;;7.20;99.90;;;;;;4925565;28;87728;-76
2023/12/05 08:51:50;;;;;;;1.40;1.02;;;7.20;99.90;;;;;;4925925;28;88163;-77
2023/12/05 08:54:16;;;;;;;3.75;0.90;;;7.20;99.90;;;;;;4923167;28;91787;-76
2023/12/05 08:56:42;;;;;;;5.20;1.00;;;7.20;99.90;;;;;;4927625;28;87474;-76
2023/12/05 08:59:08;;;;;;;1.95;0.77;;;7.20;99.90;;;;;;4928535;28;87756;-76
2023/12/05 09:01:33;;;;;;;1.52;0.80;;;7.20;99.90;;;;;;4926218;28;88279;-77
2023/12/05 09:03:59;;;;;;;1.08;0.80;;;7.30;99.90;;;;;;4927337;28;90763;-76
2023/12/05 09:06:25;;;;;;;7.00;0.80;;;7.30;99.90;;;;;;4924297;28;87695;-76
2023/12/05 09:08:50;;;;;;;5.15;0.90;;;7.30;99.90;;;;;;4925783;28;87564;-76
2023/12/05 09:11:16;;;;;;;1.95;0.80;;;7.30;99.90;;;;;;4916413;28;89809;-76
2023/12/05 09:13:42;;;;;;;3.22;1.17;;;7.30;99.90;;;;;;4925496;28;90877;-76
2023/12/05 09:16:08;;;;;;;4.72;1.00;;;7.30;99.90;;;;;;4925711;28;87831;-76
2023/12/05 09:18:33;;;;;;;7.13;1.13;;;7.30;99.90;;;;;;4924202;28;90570;-76
2023/12/05 09:20:59;;;;;;;4.28;1.35;;;7.30;99.90;;;;;;4926045;28;87737;-77
2023/12/05 09:23:25;;;;;;;3.00;1.15;;;7.40;99.90;;;;;;4920929;28;88410;-76
2023/12/05 09:25:50;;;;;;;2.42;1.30;;;7.40;99.90;;;;;;4921262;28;87715;-76
2023/12/05 09:28:16;;;;;;;2.67;1.45;;;7.40;99.90;;;;;;4920376;28;87288;-76
2023/12/05 09:30:42;;;;;;;2.45;1.52;;;7.50;99.90;;;;;;4917680;28;92000;-77
2023/12/05 09:33:07;;;;;;;3.25;1.60;;;7.50;99.90;;;;;;4921859;28;88075;-76
2023/12/05 09:35:33;;;;;;;4.18;1.45;;;7.50;99.90;;;;;;4926352;28;88528;-77
2023/12/05 09:37:59;;;;;;;14.80;8.98;;;7.50;99.90;;;;;;4925744;28;90128;-76
2023/12/05 09:40:25;;;;;;;17.70;9.88;;;7.40;99.90;;;;;;4923141;28;91825;-77
2023/12/05 09:42:54;;;;;;;20.85;11.13;;;7.30;99.90;;;;;;4927480;28;88424;-76
2023/12/05 09:45:21;;;;;;;24.63;12.73;;;7.30;99.90;;;;;;4910499;28;87767;-76
2023/12/05 09:47:47;;;;;;;23.13;12.93;;;7.10;99.90;;;;;;4927424;28;87755;-78
2023/12/05 09:50:13;;;;;;;25.77;14.18;;;7.10;99.90;;;;;;4913259;28;87943;-77
2023/12/05 09:52:40;;;;;;;27.10;14.15;;;6.90;99.90;;;;;;4924696;28;89017;-76
2023/12/05 09:55:06;;;;;;;26.83;14.13;;;6.80;99.90;;;;;;4925670;28;87624;-76
2023/12/05 09:57:34;;;;;;;26.38;14.00;;;6.70;99.90;;;;;;4927904;28;87612;-76
2023/12/05 10:00:00;;;;;;;25.70;14.18;;;6.60;99.90;;;;;;4928888;28;90531;-78
2023/12/05 10:02:26;;;;;;;24.77;13.32;;;6.50;99.90;;;;;;4927468;28;91044;-78
2023/12/05 10:05:00;;;;;;;26.75;14.00;;;6.40;99.90;;;;;;4927949;28;87616;-78
2023/12/05 10:07:26;;;;;;;;;;;6.40;99.90;;;;;;4929102;28;89517;-77
2023/12/05 10:09:53;;;;;;;30.60;14.73;;;6.40;99.90;;;;;;4929160;28;90654;-78
2023/12/05 10:12:19;;;;;;;32.95;15.88;;;6.30;99.90;;;;;;4929575;28;88456;-77
2023/12/05 10:14:45;;;;;;;36.80;16.98;;;6.20;99.90;;;;;;4930146;28;87690;-77
2023/12/05 10:17:11;;;;;;;46.30;19.25;;;6.20;99.90;;;;;;4926496;28;89236;-77
2023/12/05 10:19:37;;;;;;;53.83;22.42;;;6.10;99.90;;;;;;4926961;28;90893;-77
2023/12/05 10:22:03;;;;;;;63.42;25.65;;;6.10;99.90;;;;;;4926662;28;87858;-76
2023/12/05 10:24:39;;;;;;;60.03;24.23;;;6.00;99.90;;;;;;4929630;28;88491;-79
2023/12/05 10:27:07;;;;;;;61.00;23.75;;;6.00;99.90;;;;;;4929345;28;90934;-80
2023/12/05 10:29:37;;;;;;;59.90;24.92;;;6.00;99.90;;;;;;4929625;28;91672;-79
2023/12/05 10:32:03;;;;;;;58.33;24.38;;;5.90;99.90;;;;;;4929940;28;88484;-79
2023/12/05 10:34:29;;;;;;;59.95;23.88;;;5.90;99.90;;;;;;4921323;28;88274;-79
2023/12/05 10:37:03;;;;;;;54.58;22.50;;;5.80;99.90;;;;;;4930724;28;87834;-79
2023/12/05 10:39:37;;;;;;;59.35;23.05;;;5.80;99.90;;;;;;4930154;28;87737;-79
2023/12/05 10:42:04;;;;;;;60.33;24.48;;;5.80;99.90;;;;;;4929979;28;88881;-79
2023/12/05 10:44:40;;;;;;;60.95;22.83;;;5.80;99.90;;;;;;4930567;28;88022;-79
2023/12/05 10:47:06;;;;;;;66.90;24.65;;;5.70;99.90;;;;;;4915837;28;88911;-79
2023/12/05 10:49:34;;;;;;;70.10;25.65;;;5.70;99.90;;;;;;4919895;28;92059;-79
2023/12/05 10:52:03;;;;;;;62.72;24.48;;;5.60;99.90;;;;;;4917332;28;92516;-79
2023/12/05 10:54:30;;;;;;;73.85;24.75;;;5.60;99.90;;;;;;4914992;28;88027;-79
2023/12/05 10:57:08;;;;;;;64.32;23.40;;;5.60;99.90;;;;;;4924624;28;89952;-80
2023/12/05 10:59:34;;;;;;;59.83;22.58;;;5.60;99.90;;;;;;4925668;28;96101;-79
2023/12/05 11:02:01;;;;;;;55.60;24.00;;;5.60;99.90;;;;;;4920571;28;88133;-78
2023/12/05 11:04:27;;;;;;;49.28;21.33;;;5.60;99.90;;;;;;4918008;28;88206;-80
2023/12/05 11:06:53;;;;;;;54.40;21.20;;;5.50;99.90;;;;;;4917877;28;90766;-78
2023/12/05 11:09:23;;;;;;;50.35;22.13;;;5.50;99.90;;;;;;4920816;28;90551;-79
2023/12/05 11:11:53;;;;;;;58.60;22.27;;;5.50;99.90;;;;;;4930691;28;88973;-80
2023/12/05 11:14:21;;;;;;;43.65;19.60;;;5.50;99.90;;;;;;4928149;28;88800;-80
2023/12/05 11:16:49;;;;;;;42.80;18.27;;;5.50;99.90;;;;;;4928962;28;89283;-80
2023/12/05 11:19:46;;;;;;;37.42;16.13;;;5.50;99.90;;;;;;4922951;28;90202;-80
2023/12/05 11:22:36;;;;;;;35.33;15.90;;;5.50;99.90;;;;;;4930836;28;91533;-79
2023/12/05 11:25:20;;;;;;;35.58;15.95;;;5.50;99.90;;;;;;4924521;28;87416;-79
2023/12/05 11:28:23;;;;;;;32.60;15.73;;;5.50;99.90;;;;;;4924364;28;89171;-80
2023/12/05 11:31:08;;;;;;;35.50;15.88;;;5.50;99.90;;;;;;4919703;28;90619;-79
2023/12/05 11:33:44;;;;;;;34.40;16.27;;;5.50;99.90;;;;;;4914619;28;91695;-80
2023/12/05 11:36:31;;;;;;;32.25;15.40;;;5.50;99.90;;;;;;4910811;28;87985;-80
2023/12/05 11:38:58;;;;;;;32.65;16.38;;;5.50;99.90;;;;;;4917221;28;90416;-79
2023/12/05 11:41:24;;;;;;;34.63;16.10;;;5.60;99.90;;;;;;4915867;28;92167;-79
2023/12/05 11:44:12;;;;;;;35.08;15.95;;;5.50;99.90;;;;;;4902339;28;91416;-79
2023/12/05 11:46:41;;;;;;;32.50;15.20;;;5.50;99.90;;;;;;4912671;28;88200;-79
2023/12/05 11:49:07;;;;;;;32.65;15.55;;;5.50;99.90;;;;;;4900027;28;90548;-79
2023/12/05 11:51:33;;;;;;;33.10;15.98;;;5.50;99.90;;;;;;4908961;28;92105;-79
2023/12/05 11:54:05;;;;;;;37.65;17.00;;;5.50;99.90;;;;;;4926896;28;91212;-79
2023/12/05 11:56:30;;;;;;;36.05;15.73;;;5.50;99.90;;;;;;4899702;28;91295;-79
2023/12/05 11:59:16;;;;;;;43.80;17.10;;;5.50;99.90;;;;;;4910523;28;87419;-79
2023/12/05 12:01:43;;;;;;;33.08;14.25;;;5.50;99.90;;;;;;4904624;28;88821;-79
2023/12/05 12:04:19;;;;;;;34.70;14.82;;;5.40;99.90;;;;;;4909721;28;90179;-79
2023/12/05 12:06:47;;;;;;;40.22;16.00;;;5.40;99.90;;;;;;4895296;28;88917;-79
2023/12/05 12:09:12;;;;;;;34.13;14.75;;;5.40;99.90;;;;;;4902227;28;92572;-79
2023/12/05 12:11:39;;;;;;;34.42;15.32;;;5.50;99.90;;;;;;4926660;28;92140;-80
2023/12/05 12:14:16;;;;;;;38.17;15.80;;;5.50;99.90;;;;;;4927216;28;88387;-80
2023/12/05 12:16:43;;;;;;;38.85;16.17;;;5.50;99.90;;;;;;4929071;28;87142;-79
2023/12/05 12:19:11;;;;;;;34.75;15.10;;;5.50;99.90;;;;;;4927723;28;87874;-79
2023/12/05 12:21:44;;;;;;;38.33;15.85;;;5.50;99.90;;;;;;4925224;28;90163;-80
2023/12/05 12:24:25;;;;;;;34.90;15.55;;;5.50;99.90;;;;;;4910439;28;91105;-79
2023/12/05 12:26:57;;;;;;;34.38;14.35;;;5.40;99.90;;;;;;4927420;28;88125;-79
2023/12/05 12:29:24;;;;;;;37.20;16.25;;;5.50;99.90;;;;;;4929755;28;87596;-79
2023/12/05 12:32:03;;;;;;;38.92;16.45;;;5.50;99.90;;;;;;4926736;28;90278;-79
2023/12/05 12:34:28;;;;;;;37.65;17.33;;;5.50;99.90;;;;;;4927307;28;91187;-79
2023/12/05 12:36:56;;;;;;;43.30;18.73;;;5.40;99.90;;;;;;4923226;28;87543;-79
2023/12/05 12:39:25;;;;;;;42.67;18.05;;;5.40;99.90;;;;;;4927931;28;89773;-79
2023/12/05 12:41:53;;;;;;;51.65;20.80;;;5.40;99.90;;;;;;4929396;28;89302;-79
2023/12/05 12:44:20;;;;;;;49.25;21.52;;;5.40;99.90;;;;;;4926996;28;87927;-79
2023/12/05 12:46:47;;;;;;;55.05;22.48;;;5.40;99.90;;;;;;4919014;28;87955;-79
2023/12/05 12:49:13;;;;;;;49.00;21.80;;;5.30;99.90;;;;;;4926930;28;87292;-79
2023/12/05 12:51:40;;;;;;;47.75;19.10;;;5.30;99.90;;;;;;4920994;28;90148;-79
2023/12/05 12:54:07;;;;;;;47.42;19.48;;;5.20;99.90;;;;;;4923236;28;92409;-79